^^
Station Historical Data
Daily Summary for August 9, 2017 Units:  English    Metric   Both
« Previous Day
Next Day »
Daily Weekly Monthly Yearly Custom
  High: Low: Average:
Temperature: 83.0 °F 60.1 °F 69.9 °F
Dew Point: 62.6 °F 57.6 °F 60.3 °F
Humidity: 96% 46% 74%
Wind Speed: 5.0mph 0.0mph 0.4mph
Wind Gust: 8.0mph - -
Wind- - WSW
Pressure: 30.24 in 30.10 in -
Precipitation: 0.00 in    
Historical Graphs
 
 
Tabular Data for August 9, 2017
Time Temperature Dew Point Pressure Wind Wind Speed Wind Gust Humidity Rainfall Rate (Hourly) Conditions
00:00 66.7 °F 61.8 °F 30.10 in Calm     84% 0.00 in CLR
00:15 66.2 °F 61.2 °F 30.10 in Calm     84% 0.00 in FEW
00:30 65.4 °F 61.2 °F 30.11 in Calm     86% 0.00 in FEW
00:45 64.7 °F 60.8 °F 30.11 in Calm     87% 0.00 in FEW
01:00 64.5 °F 61.2 °F 30.11 in Calm   1.0 mph 89% 0.00 in FEW
01:15 65.0 °F 61.0 °F 30.11 in Calm   1.0 mph 87% 0.00 in FEW
01:30 65.0 °F 61.0 °F 30.11 in Calm     87% 0.00 in FEW
01:45 65.2 °F 61.9 °F 30.11 in Calm   1.0 mph 89% 0.00 in FEW
02:00 64.6 °F 61.3 °F 30.12 in Calm   1.0 mph 89% 0.00 in FEW
02:15 64.0 °F 61.0 °F 30.12 in Calm     90% 0.00 in CLR
02:30 64.5 °F 60.9 °F 30.12 in Calm   1.0 mph 88% 0.00 in CLR
02:45 64.5 °F 60.2 °F 30.12 in Calm   1.0 mph 86% 0.00 in CLR
03:00 64.8 °F 59.8 °F 30.12 in Calm   2.0 mph 84% 0.00 in CLR
03:15 64.6 °F 59.7 °F 30.13 in Calm   2.0 mph 84% 0.00 in CLR
03:31 63.7 °F 59.4 °F 30.13 in Calm     86% 0.00 in CLR
03:45 62.5 °F 58.6 °F 30.14 in Calm     87% 0.00 in CLR
04:00 62.9 °F 59.0 °F 30.14 in Calm     87% 0.00 in CLR
04:15 62.7 °F 58.7 °F 30.14 in Calm     87% 0.00 in CLR
04:30 62.2 °F 58.3 °F 30.14 in Calm     87% 0.00 in CLR
04:45 60.6 °F 57.6 °F 30.14 in Calm     90% 0.00 in CLR
05:00 60.3 °F 58.3 °F 30.15 in Calm     93% 0.00 in CLR
05:15 60.8 °F 58.8 °F 30.15 in Calm     93% 0.00 in CLR
05:30 61.3 °F 59.3 °F 30.16 in Calm   1.0 mph 93% 0.00 in CLR
06:00 60.8 °F 59.4 °F 30.17 in Calm   1.0 mph 95% 0.00 in CLR
06:15 61.0 °F 59.6 °F 30.17 in Calm   1.0 mph 95% 0.00 in CLR
06:30 60.6 °F 59.2 °F 30.18 in Calm     95% 0.00 in CLR
06:45 60.1 °F 58.7 °F 30.18 in Calm     95% 0.00 in CLR
07:00 60.6 °F 59.5 °F 30.18 in Calm     96% 0.00 in CLR
07:15 61.1 °F 59.9 °F 30.19 in Calm     96% 0.00 in CLR
07:30 61.4 °F 60.2 °F 30.19 in Calm   1.0 mph 96% 0.00 in CLR
07:45 62.0 °F 60.6 °F 30.19 in Calm     95% 0.00 in CLR
08:00 62.7 °F 60.9 °F 30.19 in Calm   1.0 mph 94% 0.00 in CLR
08:15 65.4 °F 61.4 °F 30.20 in Calm   2.0 mph 87% 0.00 in CLR
08:30 67.0 °F 61.7 °F 30.20 in Calm   1.0 mph 83% 0.00 in CLR
08:45 68.1 °F 62.1 °F 30.20 in Calm   1.0 mph 81% 0.00 in CLR
09:00 69.8 °F 62.6 °F 30.20 in Calm   2.0 mph 78% 0.00 in CLR
09:15 70.5 °F 62.6 °F 30.21 in Calm   2.0 mph 76% 0.00 in CLR
09:30 71.7 °F 60.1 °F 30.21 in SW 1.0 mph 3.0 mph 67% 0.00 in CLR
09:45 72.4 °F 61.3 °F 30.21 in Calm   2.0 mph 68% 0.00 in CLR
10:00 73.0 °F 59.2 °F 30.21 in Calm   3.0 mph 62% 0.00 in CLR
10:15 73.7 °F 58.5 °F 30.22 in NW 1.0 mph 4.0 mph 59% 0.00 in CLR
10:30 73.7 °F 58.5 °F 30.22 in NE 1.0 mph 5.0 mph 59% 0.00 in CLR
10:45 74.7 °F 59.5 °F 30.22 in NW 1.0 mph 5.0 mph 59% 0.00 in CLR
11:00 74.8 °F 60.0 °F 30.22 in NW 2.0 mph 5.0 mph 60% 0.00 in CLR
11:15 75.2 °F 60.4 °F 30.22 in Calm   6.0 mph 60% 0.00 in CLR
11:30 76.4 °F 60.0 °F 30.22 in Calm   4.0 mph 57% 0.00 in CLR
11:45 76.9 °F 60.5 °F 30.22 in NE 1.0 mph 4.0 mph 57% 0.00 in CLR
12:00 78.8 °F 61.8 °F 30.21 in SSW 1.0 mph 4.0 mph 56% 0.00 in CLR
12:15 79.8 °F 61.7 °F 30.21 in SW 1.0 mph 4.0 mph 54% 0.00 in CLR
12:30 78.9 °F 60.8 °F 30.21 in North 1.0 mph 5.0 mph 54% 0.00 in CLR
12:45 79.1 °F 60.5 °F 30.20 in SE 1.0 mph 4.0 mph 53% 0.00 in CLR
13:00 79.2 °F 60.6 °F 30.20 in Calm   5.0 mph 53% 0.00 in CLR
13:15 80.4 °F 60.6 °F 30.20 in WSW 2.0 mph 7.0 mph 51% 0.00 in FEW
13:30 80.5 °F 60.7 °F 30.20 in Calm   5.0 mph 51% 0.00 in FEW
13:45 79.8 °F 60.0 °F 30.19 in NNW 1.0 mph 5.0 mph 51% 0.00 in FEW
14:00 81.7 °F 60.7 °F 30.19 in WSW 1.0 mph 8.0 mph 49% 0.00 in FEW
14:15 82.5 °F 60.8 °F 30.19 in WSW 1.0 mph 6.0 mph 48% 0.00 in FEW
14:30 81.7 °F 60.1 °F 30.18 in North 1.0 mph 7.0 mph 48% 0.00 in FEW
14:45 82.3 °F 60.6 °F 30.18 in WSW 3.0 mph 5.0 mph 48% 0.00 in FEW
15:00 83.0 °F 60.1 °F 30.18 in SSW 2.0 mph 6.0 mph 46% 0.00 in FEW
15:15 82.9 °F 60.6 °F 30.18 in SSW 5.0 mph 8.0 mph 47% 0.00 in FEW
20:00 75.4 °F 61.5 °F 30.20 in Calm   4.0 mph 62% 0.00 in FEW
20:15 74.6 °F 60.7 °F 30.20 in SW 2.0 mph 4.0 mph 62% 0.00 in FEW
20:30 74.0 °F 60.6 °F 30.21 in Calm   4.0 mph 63% 0.00 in FEW
20:45 73.4 °F 60.5 °F 30.21 in Calm   3.0 mph 64% 0.00 in FEW
21:00 73.0 °F 60.5 °F 30.22 in Calm   3.0 mph 65% 0.00 in FEW
21:15 72.5 °F 60.5 °F 30.22 in Calm   3.0 mph 66% 0.00 in FEW
21:30 72.3 °F 60.3 °F 30.23 in SW 1.0 mph 3.0 mph 66% 0.00 in FEW
21:45 72.1 °F 60.5 °F 30.23 in Calm   2.0 mph 67% 0.00 in FEW
22:00 71.7 °F 60.1 °F 30.23 in Calm   2.0 mph 67% 0.00 in FEW
22:15 71.4 °F 60.3 °F 30.23 in Calm   2.0 mph 68% 0.00 in CLR
22:30 70.9 °F 59.8 °F 30.24 in Calm   1.0 mph 68% 0.00 in CLR
22:45 70.7 °F 60.0 °F 30.24 in Calm   2.0 mph 69% 0.00 in CLR
23:00 70.3 °F 60.1 °F 30.24 in Calm     70% 0.00 in CLR
23:15 70.0 °F 60.2 °F 30.23 in Calm     71% 0.00 in CLR
23:30 69.3 °F 60.3 °F 30.23 in Calm     73% 0.00 in CLR
23:45 68.6 °F 60.7 °F 30.23 in Calm     76% 0.00 in CLR
TarryTown NY Weather
Compliments of Weather Underground - 1.25 mb